Kezdőlap
METAR-TAF:

METAR-TAF

Repülőterek :

El Salvador nemzetközi repülőtér

Salvador, El Salvador

földrajzi szélesség: 13-26N, földrajzi hosszúság: 089-03W, magasság: 25 m

Jelenlegi meteorológiai megfigyelések

A jelentés 37 perccel ezelõtt készült, 03:50 UTC
Északkeleti szél 6 kt
Hőmérséklet 26°C
Páratartalom 65%
Légköri nyomás 1013 hPa
Látótávolság 10 km, vagy több
felhőtlen 1500 m magasságban, és nincs gomolyfelhõ

METAR: MSLP 090350Z 04006KT CAVOK 26/19 Q1012 A2990 NOSIG

Idő: 22:27 (04:27 UTC)

Előrejelzés

A jelentés 7 órával és 2 perccel ezelõtt készült, 21:25 UTC
Az előrejelzés 09-én 00 óra UTC és 09-én 24 óra UTC között érvényes
Északkeleti szél 8 kt
Látótávolság 10 km, vagy több
felhőtlen 1500 m magasságban, és nincs gomolyfelhõ
09-én 2000 órától UTC szerint
Dél-délnyugati szél 12 kt
Látótávolság 10 km, vagy több
Kevés felhő 4300 lábon

TAF: MSLP 082125Z 0900/0924 04008KT CAVOK TX33/0918Z TN23/0912Z FM0920000 21012KT 9999 FEW043

Meteorológiai megfigyelések és előrejelzések több, mint 4000 repülőtéren (METAR és TAF jelentéseket).

A térképen piros és sárga pontok jelzik az elérhető meteorológiai állomásokat.

Mozgassa az egeret a pont fölött, hogy megjelenjen az állomás neve.

Azután kattintson az időjárási megfigyelések és előrejelzések megtekintéséhez.

A térkép megváltoztatása: kattintson a fekete keresztel jelölt zöld gombra ráközelítéshez, a vonallal jelölt zöld gombra távolításhoz, vagy a zöld nyilakra a szomszédos térképek eléréséhez.


METAR-TAF: